Terminal Aerodrome Forecast
Issued by NWS

Home | Current Version | Previous Version | Text Only | Print | Product List | Glossary On
Versions: 1 2 3 4 5 6 7 8 9 10 11 12 13 14 15 16 17 18 19 20 21
830
FTUS43 KEAX 251242 AAA
TAFSTJ
TAF AMD
KSTJ 251242Z 2513/2612 VRB03KT 6SM BR SKC
     FM251400 17010KT P6SM FEW250
     FM260200 14007KT P6SM BKN140=

USA.gov is the U.S. government's official web portal to all federal, state and local government web resources and services.